Time;durP1;ratioP1;P1;durP2;ratioP2;P2;SDS_P1;SDS_P2;PMS_P1;PMS_P2;Temp;Humidity;BMP_temperature;BMP_pressure;BME280_temperature;BME280_humidity;BME280_pressure;Samples;Min_cycle;Max_cycle;Signal;HPM_P1;HPM_P2
2021/12/29 00:00:27;;;;;;;24.23;12.00;;;-3.60;99.90;;;;;;4880951;29;20299;-89
2021/12/29 00:02:58;;;;;;;27.73;12.23;;;-3.60;99.90;;;;;;4880920;29;20673;-88
2021/12/29 00:05:24;;;;;;;26.13;12.93;;;-3.50;99.90;;;;;;4879609;29;20342;-87
2021/12/29 00:07:50;;;;;;;27.20;12.00;;;;;;;;;;4880694;29;20182;-89
2021/12/29 00:10:18;;;;;;;22.70;11.83;;;;;;;;;;4879732;29;20266;-91
2021/12/29 00:12:48;;;;;;;33.63;14.37;;;;;;;;;;4891678;29;20703;-89
2021/12/29 00:15:16;;;;;;;28.73;15.07;;;-3.60;99.90;;;;;;4902531;29;20155;-88
2021/12/29 00:17:44;;;;;;;24.57;11.80;;;;;;;;;;4900881;29;20182;-90
2021/12/29 00:20:16;;;;;;;24.27;12.07;;;-3.80;99.90;;;;;;4897448;29;20182;-89
2021/12/29 00:22:42;;;;;;;25.80;13.10;;;;;;;;;;4890672;29;20172;-88
2021/12/29 00:25:09;;;;;;;29.80;13.10;;;-3.70;99.90;;;;;;4879657;29;20214;-88
2021/12/29 00:27:35;;;;;;;27.30;11.60;;;;;;;;;;4880380;29;20180;-87
2021/12/29 00:30:01;;;;;;;24.93;10.83;;;;;;;;;;4903097;29;20234;-87
2021/12/29 00:32:27;;;;;;;26.47;12.37;;;;;;;;;;4903861;29;20198;-87
2021/12/29 00:34:53;;;;;;;37.23;13.63;;;;;;;;;;4903926;29;20197;-87
2021/12/29 00:37:19;;;;;;;35.13;14.87;;;;;;;;;;4903088;29;20210;-87
2021/12/29 00:39:45;;;;;;;28.97;13.60;;;;;;;;;;4880616;29;20204;-89
2021/12/29 00:42:11;;;;;;;31.63;14.43;;;;;;;;;;4878319;29;20284;-89
2021/12/29 00:44:38;;;;;;;25.93;11.30;;;;;;;;;;4899890;29;20181;-88
2021/12/29 00:47:04;;;;;;;21.77;10.70;;;;;;;;;;4902837;29;20178;-88
2021/12/29 00:49:33;;;;;;;33.17;13.17;;;-3.70;99.90;;;;;;4885409;29;20729;-88
2021/12/29 00:52:05;;;;;;;28.47;12.87;;;-3.70;99.90;;;;;;4879527;29;20175;-89
2021/12/29 00:54:31;;;;;;;27.93;14.57;;;;;;;;;;4879658;29;20512;-89
2021/12/29 00:56:57;;;;;;;33.80;13.57;;;;;;;;;;4878146;29;20200;-87
2021/12/29 00:59:23;;;;;;;32.83;14.93;;;;;;;;;;4879225;29;20237;-88
2021/12/29 01:01:50;;;;;;;33.40;15.37;;;-3.70;99.90;;;;;;4878295;29;20199;-89
2021/12/29 01:04:17;;;;;;;30.77;12.77;;;-3.70;99.90;;;;;;4879079;29;20254;-88
2021/12/29 01:06:43;;;;;;;32.70;14.67;;;;;;;;;;4879297;29;20592;-88
2021/12/29 01:09:09;;;;;;;31.97;14.80;;;;;;;;;;4879114;29;20197;-89
2021/12/29 01:11:36;;;;;;;28.83;14.00;;;;;;;;;;4862799;29;20226;-89
2021/12/29 01:14:02;;;;;;;27.23;11.97;;;;;;;;;;4862572;29;20201;-89
2021/12/29 01:19:08;;;;;;;27.70;13.47;;;-3.70;99.90;;;;;;4879131;29;20170;-89
2021/12/29 01:21:34;;;;;;;30.23;14.30;;;-3.70;99.90;;;;;;4879147;29;20643;-89
2021/12/29 01:24:02;;;;;;;29.80;13.43;;;-3.70;99.90;;;;;;4862179;29;20195;-88
2021/12/29 01:26:28;;;;;;;28.13;13.23;;;;;;;;;;4879163;29;20237;-89
2021/12/29 01:28:54;;;;;;;32.57;14.87;;;;;;;;;;4878883;29;20553;-88
2021/12/29 01:31:20;;;;;;;27.57;14.00;;;;;;;;;;4877525;29;20232;-88
2021/12/29 01:33:46;;;;;;;25.30;12.37;;;;;;;;;;4879064;29;20262;-87
2021/12/29 01:36:12;;;;;;;25.97;13.00;;;;;;;;;;4879540;29;20189;-88
2021/12/29 01:38:38;;;;;;;26.33;14.00;;;;;;;;;;4880372;29;20190;-87
2021/12/29 01:41:03;;;;;;;26.47;13.70;;;-3.90;99.90;;;;;;4879439;29;20199;-88
2021/12/29 01:43:29;;;;;;;27.47;12.17;;;;;;;;;;4879415;29;20264;-87
2021/12/29 01:45:55;;;;;;;35.27;13.00;;;;;;;;;;4879032;29;20223;-89
2021/12/29 01:48:21;;;;;;;34.43;14.50;;;;;;;;;;4877451;29;20195;-88
2021/12/29 01:50:52;;;;;;;33.10;13.87;;;;;;;;;;4877661;29;20225;-89
2021/12/29 01:53:25;;;;;;;21.47;11.47;;;-3.70;99.90;;;;;;4877598;29;21091;-89
2021/12/29 01:55:52;;;;;;;26.53;11.07;;;-3.70;99.90;;;;;;4878902;29;20178;-89
2021/12/29 01:58:19;;;;;;;25.20;12.93;;;-3.70;99.90;;;;;;4877458;29;20956;-88
2021/12/29 02:00:45;;;;;;;24.47;12.90;;;;;;;;;;4878493;29;20321;-88
2021/12/29 02:03:11;;;;;;;29.43;13.13;;;;;;;;;;4877821;29;20190;-89
2021/12/29 02:05:39;;;;;;;41.90;17.57;;;-3.70;99.90;;;;;;4877871;29;20187;-89
2021/12/29 02:08:06;;;;;;;37.17;15.53;;;-3.70;99.90;;;;;;4877387;29;20203;-89
2021/12/29 02:10:36;;;;;;;37.90;14.67;;;;;;;;;;4877681;29;20223;-90
2021/12/29 02:13:03;;;;;;;35.73;15.00;;;;;;;;;;4877701;29;20197;-89
2021/12/29 02:15:29;;;;;;;28.13;12.67;;;;;;;;;;4862355;29;20189;-90
2021/12/29 02:17:55;;;;;;;29.43;13.60;;;;;;;;;;4878705;29;20807;-90
2021/12/29 02:20:21;;;;;;;33.23;14.67;;;;;;;;;;4879774;29;20655;-90
2021/12/29 02:22:54;;;;;;;28.07;14.40;;;-3.70;99.90;;;;;;4865670;29;20194;-89
2021/12/29 02:25:33;;;;;;;26.63;12.67;;;;;;;;;;4881002;29;20690;-89
2021/12/29 02:28:02;;;;;;;33.53;14.23;;;-3.70;99.90;;;;;;4881101;29;20207;-89
2021/12/29 02:30:28;;;;;;;25.50;12.97;;;;;;;;;;4881979;29;20209;-88
2021/12/29 02:32:55;;;;;;;28.87;12.53;;;;;;;;;;4882241;29;20188;-89
2021/12/29 02:35:22;;;;;;;50.87;17.73;;;-3.60;99.90;;;;;;4880727;29;20183;-88
2021/12/29 02:37:48;;;;;;;46.90;18.23;;;;;;;;;;4880817;29;20247;-88
2021/12/29 02:40:15;;;;;;;38.00;14.27;;;-3.60;99.90;;;;;;4881712;29;20267;-89
2021/12/29 02:42:42;;;;;;;34.87;12.80;;;;;;;;;;4880843;29;20235;-88
2021/12/29 02:45:11;;;;;;;22.47;11.47;;;-3.30;99.90;;;;;;4880508;29;20191;-88
2021/12/29 02:47:37;;;;;;;29.10;14.10;;;;;;;;;;4882079;29;20201;-88
2021/12/29 02:50:04;;;;;;;26.50;12.20;;;-3.70;99.90;;;;;;4880257;29;20222;-87
2021/12/29 02:52:30;;;;;;;25.43;11.50;;;;;;;;;;4882007;29;20187;-88
2021/12/29 02:54:56;;;;;;;25.03;11.20;;;;;;;;;;4886014;29;20186;-88
2021/12/29 02:57:22;;;;;;;32.77;16.77;;;;;;;;;;4864785;29;20224;-88
2021/12/29 02:59:48;;;;;;;28.90;13.93;;;;;;;;;;4880018;29;20236;-87
2021/12/29 03:02:14;;;;;;;22.37;12.83;;;;;;;;;;4864755;29;20253;-87
2021/12/29 03:04:40;;;;;;;23.20;12.30;;;;;;;;;;4881239;29;20522;-88
2021/12/29 03:07:06;;;;;;;33.70;13.80;;;;;;;;;;4864685;29;20194;-88
2021/12/29 03:09:32;;;;;;;28.33;12.30;;;;;;;;;;4880561;29;20200;-88
2021/12/29 03:11:58;;;;;;;27.07;13.47;;;;;;;;;;4881529;29;20191;-88
2021/12/29 03:14:25;;;;;;;27.57;13.73;;;;;;;;;;4880230;29;20622;-88
2021/12/29 03:16:52;;;;;;;32.33;13.83;;;;;;;;;;4880474;29;20188;-88
2021/12/29 03:19:18;;;;;;;29.90;13.30;;;-3.70;99.90;;;;;;4880525;29;20198;-88
2021/12/29 03:21:45;;;;;;;28.90;12.97;;;;;;;;;;4880432;29;20212;-89
2021/12/29 03:24:11;;;;;;;25.97;11.40;;;;;;;;;;4881407;29;20179;-88
2021/12/29 03:26:37;;;;;;;25.93;12.17;;;;;;;;;;4881474;29;20183;-89
2021/12/29 03:29:04;;;;;;;35.83;14.13;;;-3.70;99.90;;;;;;4880947;29;20633;-88
2021/12/29 03:31:32;;;;;;;29.53;12.70;;;;;;;;;;4880726;29;20220;-89
2021/12/29 03:33:59;;;;;;;29.77;12.40;;;;;;;;;;4881945;29;20180;-88
2021/12/29 03:36:26;;;;;;;26.93;12.93;;;;;;;;;;4882902;29;20223;-88
2021/12/29 03:38:52;;;;;;;29.00;11.70;;;;;;;;;;4883788;29;20175;-88
2021/12/29 03:41:19;;;;;;;26.57;13.00;;;-3.70;99.90;;;;;;4905905;29;20239;-87
2021/12/29 03:43:45;;;;;;;33.20;13.60;;;-3.70;99.90;;;;;;4905368;29;20186;-88
2021/12/29 03:46:12;;;;;;;31.87;14.47;;;;;;;;;;4904908;29;20192;-88
2021/12/29 03:48:39;;;;;;;31.30;12.93;;;-3.80;99.90;;;;;;4905002;29;20238;-87
2021/12/29 03:51:06;;;;;;;27.03;12.77;;;-3.90;99.90;;;;;;4904853;29;20277;-88
2021/12/29 03:53:33;;;;;;;25.60;13.57;;;-3.90;99.90;;;;;;4905003;29;20187;-87
2021/12/29 03:55:59;;;;;;;35.87;14.67;;;;;;;;;;4873943;29;20174;-87
2021/12/29 03:58:26;;;;;;;31.27;14.47;;;-3.90;99.90;;;;;;4905299;29;20199;-87
2021/12/29 04:00:56;;;;;;;27.03;13.53;;;-3.90;99.90;;;;;;4889273;29;20254;-88
2021/12/29 04:03:22;;;;;;;23.07;10.83;;;;;;;;;;4904420;29;20155;-88
2021/12/29 04:05:48;;;;;;;30.47;15.43;;;;;;;;;;4904462;29;20159;-86
2021/12/29 04:08:15;;;;;;;39.37;16.07;;;-3.90;99.90;;;;;;4903499;29;20209;-87
2021/12/29 04:10:41;;;;;;;27.47;12.77;;;;;;;;;;4888335;29;20240;-87
2021/12/29 04:13:07;;;;;;;43.77;17.63;;;;;;;;;;4887681;29;20166;-87
2021/12/29 04:15:34;;;;;;;32.60;14.97;;;;;;;;;;4898897;29;20277;-87
2021/12/29 04:18:02;;;;;;;37.93;15.23;;;;;;;;;;4879079;29;20185;-87
2021/12/29 04:23:15;;;;;;;22.87;11.53;;;;;;;;;;4879627;29;20185;-87
2021/12/29 04:25:46;;;;;;;25.70;13.13;;;-3.90;99.90;;;;;;4879685;29;20185;-87
2021/12/29 04:28:14;;;;;;;26.53;13.50;;;;;;;;;;4880111;29;20178;-87
2021/12/29 04:30:40;;;;;;;32.80;14.13;;;-3.90;99.90;;;;;;4879939;29;20214;-88
2021/12/29 04:33:06;;;;;;;32.63;14.23;;;;;;;;;;4879670;29;20186;-88
2021/12/29 04:35:33;;;;;;;28.33;13.37;;;;;;;;;;4863014;29;20225;-90
2021/12/29 04:37:59;;;;;;;26.60;12.67;;;;;;;;;;4880049;29;20194;-88
2021/12/29 04:40:25;;;;;;;26.00;13.10;;;;;;;;;;4878475;29;20198;-89
2021/12/29 04:42:51;;;;;;;26.87;13.17;;;;;;;;;;4879557;29;20190;-89
2021/12/29 04:45:17;;;;;;;30.17;12.80;;;;;;;;;;4878464;29;20196;-88
2021/12/29 04:47:46;;;;;;;25.83;12.30;;;;;;;;;;4878434;29;20190;-89
2021/12/29 04:50:37;;;;;;;22.77;11.00;;;-3.80;99.90;;;;;;4878220;29;20628;-88
2021/12/29 04:53:06;;;;;;;30.27;12.47;;;-3.80;99.90;;;;;;4879243;29;20198;-88
2021/12/29 04:55:32;;;;;;;21.57;10.93;;;;;;;;;;4879684;29;20186;-88
2021/12/29 04:58:00;;;;;;;27.77;14.03;;;-3.80;99.90;;;;;;4878182;29;20193;-88
2021/12/29 05:00:28;;;;;;;28.00;13.13;;;-3.80;99.90;;;;;;4879144;29;20239;-89
2021/12/29 05:02:55;;;;;;;27.20;12.83;;;-3.90;99.90;;;;;;4878238;29;20191;-88
2021/12/29 05:05:38;;;;;;;31.77;14.50;;;;;;;;;;4878097;29;20629;-88
2021/12/29 05:10:50;;;;;;;36.13;15.13;;;;;;;;;;4879117;29;20228;-88
2021/12/29 05:13:17;;;;;;;39.67;17.30;;;;;;;;;;4877837;29;20643;-89
2021/12/29 05:15:43;;;;;;;39.83;17.27;;;;;;;;;;4877866;29;20637;-88
2021/12/29 05:18:09;;;;;;;40.93;15.87;;;;;;;;;;4878801;29;20189;-88
2021/12/29 05:20:35;;;;;;;38.13;18.70;;;;;;;;;;4878037;29;20198;-88
2021/12/29 05:23:01;;;;;;;32.73;17.80;;;;;;;;;;4878190;29;20675;-88
2021/12/29 05:25:28;;;;;;;37.20;16.53;;;-3.90;99.90;;;;;;4878536;29;20198;-88
2021/12/29 05:27:54;;;;;;;28.13;15.27;;;;;;;;;;4878859;29;20190;-87
2021/12/29 05:30:20;;;;;;;34.47;15.37;;;;;;;;;;4879095;29;20586;-90
2021/12/29 05:32:46;;;;;;;33.23;15.67;;;;;;;;;;4878015;29;20191;-88
2021/12/29 05:35:13;;;;;;;25.23;12.83;;;-3.80;99.90;;;;;;4877729;29;20254;-88
2021/12/29 05:37:39;;;;;;;33.13;15.87;;;;;;;;;;4862462;29;20192;-89
2021/12/29 05:40:06;;;;;;;29.10;15.23;;;-4.70;99.90;;;;;;4879274;29;20262;-88
2021/12/29 05:42:36;;;;;;;37.13;15.53;;;;;;;;;;4877671;29;20203;-88
2021/12/29 05:45:07;;;;;;;25.93;13.50;;;-3.90;99.90;;;;;;4877394;29;20182;-88
2021/12/29 05:47:34;;;;;;;34.53;16.77;;;;;;;;;;4877854;29;20186;-88
2021/12/29 05:50:00;;;;;;;31.13;14.50;;;;;;;;;;4878171;29;20222;-88
2021/12/29 05:52:26;;;;;;;55.97;23.67;;;;;;;;;;4878005;29;20188;-89
2021/12/29 05:54:52;;;;;;;38.40;18.73;;;;;;;;;;4881220;29;20193;-89
2021/12/29 05:57:18;;;;;;;34.53;16.37;;;;;;;;;;4889211;29;20185;-89
2021/12/29 05:59:44;;;;;;;43.60;19.10;;;;;;;;;;4893431;29;20719;-89
2021/12/29 06:02:10;;;;;;;33.27;15.23;;;;;;;;;;4866714;29;20200;-88
2021/12/29 06:04:36;;;;;;;29.03;13.27;;;;;;;;;;4882775;29;20668;-88
2021/12/29 06:07:02;;;;;;;43.03;17.70;;;;;;;;;;4881580;29;20193;-88
2021/12/29 06:09:28;;;;;;;32.33;15.40;;;;;;;;;;4881513;29;20197;-88
2021/12/29 06:11:54;;;;;;;36.30;14.73;;;;;;;;;;4881162;29;20214;-89
2021/12/29 06:14:20;;;;;;;39.40;15.33;;;;;;;;;;4881199;29;20198;-88
2021/12/29 06:16:46;;;;;;;41.37;18.80;;;;;;;;;;4881347;29;20195;-90
2021/12/29 06:19:12;;;;;;;34.03;15.87;;;;;;;;;;4882387;29;20544;-86
2021/12/29 06:21:38;;;;;;;36.57;15.50;;;;;;;;;;4882596;29;20189;-86
2021/12/29 06:24:04;;;;;;;61.27;25.57;;;-4.10;99.90;;;;;;4880607;29;20189;-87
2021/12/29 06:26:31;;;;;;;42.73;17.77;;;;;;;;;;4881788;29;20219;-86
2021/12/29 06:28:57;;;;;;;38.30;16.70;;;;;;;;;;4880691;29;20193;-86
2021/12/29 06:31:23;;;;;;;33.60;15.17;;;;;;;;;;4881593;29;20274;-87
2021/12/29 06:33:49;;;;;;;35.37;15.67;;;;;;;;;;4866348;29;20190;-89
2021/12/29 06:36:15;;;;;;;40.30;15.83;;;;;;;;;;4862845;29;20380;-87
2021/12/29 06:38:41;;;;;;;31.37;15.17;;;;;;;;;;4863119;29;20186;-88
2021/12/29 06:41:07;;;;;;;41.37;18.87;;;;;;;;;;4863367;29;20191;-86
2021/12/29 06:43:33;;;;;;;49.57;18.73;;;;;;;;;;4863095;29;20191;-85
2021/12/29 06:45:59;;;;;;;43.67;18.07;;;;;;;;;;4863111;29;20198;-88
2021/12/29 06:48:25;;;;;;;34.03;15.67;;;;;;;;;;4882390;29;20196;-87
2021/12/29 06:50:51;;;;;;;41.57;19.30;;;;;;;;;;4867407;29;20236;-85
2021/12/29 06:53:17;;;;;;;40.13;18.77;;;;;;;;;;4882152;29;20211;-82
2021/12/29 06:55:43;;;;;;;45.10;18.97;;;;;;;;;;4882071;29;20254;-84
2021/12/29 06:58:10;;;;;;;34.50;16.87;;;-3.90;99.90;;;;;;4881424;29;20197;-84
2021/12/29 07:00:37;;;;;;;39.73;17.63;;;;;;;;;;4856594;29;20245;-87
2021/12/29 07:03:03;;;;;;;37.23;17.80;;;;;;;;;;4877571;29;20219;-86
2021/12/29 07:05:29;;;;;;;35.80;16.57;;;;;;;;;;4873970;29;20194;-87
2021/12/29 07:07:56;;;;;;;43.97;15.93;;;;;;;;;;4889687;29;20195;-85
2021/12/29 07:10:22;;;;;;;31.97;15.57;;;;;;;;;;4868631;29;20679;-86
2021/12/29 07:12:48;;;;;;;46.10;18.17;;;-3.80;99.90;;;;;;4853333;29;20232;-85
2021/12/29 07:15:15;;;;;;;44.40;18.27;;;-3.80;99.90;;;;;;4857605;29;20610;-90
2021/12/29 07:17:41;;;;;;;47.97;22.00;;;;;;;;;;4874184;29;20197;-87
2021/12/29 07:20:08;;;;;;;44.50;19.70;;;-3.70;99.90;;;;;;4854583;29;20218;-85
2021/12/29 07:22:34;;;;;;;37.90;16.77;;;;;;;;;;4873698;29;20194;-84
2021/12/29 07:25:00;;;;;;;28.43;14.83;;;;;;;;;;4876933;29;20635;-85
2021/12/29 07:27:26;;;;;;;36.40;15.30;;;;;;;;;;4874636;29;20198;-88
2021/12/29 07:29:52;;;;;;;38.50;16.63;;;;;;;;;;4857533;29;20208;-87
2021/12/29 07:32:18;;;;;;;35.43;15.10;;;;;;;;;;4861802;29;20199;-88
2021/12/29 07:34:44;;;;;;;38.63;17.23;;;;;;;;;;4876539;29;21112;-86
2021/12/29 07:37:12;;;;;;;37.53;16.13;;;;;;;;;;4877255;29;20200;-89
2021/12/29 07:39:38;;;;;;;34.97;17.47;;;;;;;;;;4873100;29;20282;-87
2021/12/29 07:42:04;;;;;;;33.63;15.30;;;;;;;;;;4874829;29;20197;-88
2021/12/29 07:44:30;;;;;;;34.63;16.10;;;;;;;;;;4873233;29;20197;-88
2021/12/29 07:46:58;;;;;;;45.30;19.97;;;;;;;;;;4856578;29;20194;-85
2021/12/29 07:49:24;;;;;;;50.13;19.03;;;;;;;;;;4874154;29;20199;-84
2021/12/29 07:51:51;;;;;;;48.13;19.63;;;-3.70;99.90;;;;;;4877490;29;20252;-85
2021/12/29 07:54:17;;;;;;;38.93;17.50;;;;;;;;;;4861742;29;20644;-85
2021/12/29 07:56:44;;;;;;;42.27;18.07;;;;;;;;;;4863095;29;20197;-85
2021/12/29 07:59:10;;;;;;;38.47;16.50;;;;;;;;;;4880311;29;20214;-84
2021/12/29 08:01:36;;;;;;;35.33;17.60;;;;;;;;;;4881280;29;20256;-86
2021/12/29 08:04:03;;;;;;;33.70;14.73;;;;;;;;;;4863954;29;20205;-82
2021/12/29 08:06:29;;;;;;;36.70;17.07;;;;;;;;;;4883717;29;20305;-85
2021/12/29 08:08:55;;;;;;;44.07;20.73;;;-3.70;99.90;;;;;;4876666;29;20200;-85
2021/12/29 08:11:21;;;;;;;47.87;20.23;;;;;;;;;;4878449;29;20214;-85
2021/12/29 08:13:48;;;;;;;48.20;21.17;;;-3.70;99.90;;;;;;4869473;29;20195;-86
2021/12/29 08:16:14;;;;;;;44.23;20.60;;;;;;;;;;4867567;29;20271;-86
2021/12/29 08:18:41;;;;;;;49.60;19.90;;;-3.70;99.90;;;;;;4869987;29;20532;-86
2021/12/29 08:21:07;;;;;;;44.40;17.83;;;;;;;;;;4873560;29;20219;-85
2021/12/29 08:23:33;;;;;;;44.33;19.50;;;;;;;;;;4866933;29;20186;-87
2021/12/29 08:26:00;;;;;;;43.83;19.40;;;;;;;;;;4872651;29;20589;-87
2021/12/29 08:28:26;;;;;;;42.77;18.60;;;;;;;;;;4855227;29;20693;-86
2021/12/29 08:30:54;;;;;;;45.70;20.47;;;-3.60;99.90;;;;;;4856571;29;20243;-88
2021/12/29 08:33:20;;;;;;;37.90;16.50;;;;;;;;;;4877092;29;20185;-88
2021/12/29 08:35:46;;;;;;;55.70;22.00;;;;;;;;;;4872432;29;20198;-87
2021/12/29 08:38:12;;;;;;;62.40;25.60;;;;;;;;;;4875810;29;20706;-85
2021/12/29 08:40:38;;;;;;;119.67;47.87;;;;;;;;;;4875332;29;20194;-84
2021/12/29 08:43:04;;;;;;;39.90;17.33;;;;;;;;;;4870548;29;20303;-85
2021/12/29 08:45:31;;;;;;;45.63;19.70;;;-3.70;99.90;;;;;;4877900;29;20198;-85
2021/12/29 08:47:58;;;;;;;71.70;28.03;;;-3.60;99.90;;;;;;4866076;29;20201;-83
2021/12/29 08:50:29;;;;;;;56.57;23.17;;;-3.60;99.90;;;;;;4878851;29;20633;-87
2021/12/29 08:53:02;;;;;;;56.23;23.37;;;-3.60;99.90;;;;;;4878920;29;20284;-84
2021/12/29 08:55:28;;;;;;;48.37;21.30;;;;;;;;;;4869915;29;20204;-84
2021/12/29 08:57:54;;;;;;;73.17;26.13;;;;;;;;;;4878537;29;20273;-83
2021/12/29 09:00:21;;;;;;;43.67;19.43;;;-3.60;99.90;;;;;;4870815;29;20242;-84
2021/12/29 09:02:47;;;;;;;49.20;20.03;;;-3.60;99.90;;;;;;4879130;29;20759;-86
2021/12/29 09:05:16;;;;;;;54.57;22.10;;;-3.50;99.90;;;;;;4871878;29;20278;-84
2021/12/29 09:07:42;;;;;;;53.43;22.37;;;;;;;;;;4876282;29;20269;-84
2021/12/29 09:10:10;;;;;;;71.10;27.90;;;-3.50;99.90;;;;;;4849975;29;20246;-87
2021/12/29 09:12:36;;;;;;;57.13;23.43;;;;;;;;;;4878059;29;20200;-83
2021/12/29 09:15:04;;;;;;;75.03;35.33;;;-2.50;99.90;;;;;;4870765;29;20209;-83
2021/12/29 09:17:30;;;;;;;62.73;29.70;;;;;;;;;;4878981;29;20193;-84
2021/12/29 09:19:56;;;;;;;36.70;18.20;;;;;;;;;;4878734;29;20282;-91
2021/12/29 09:22:22;;;;;;;51.47;23.20;;;;;;;;;;4868969;29;20201;-86
2021/12/29 09:24:49;;;;;;;57.93;25.43;;;;;;;;;;4877509;29;20583;-88
2021/12/29 09:27:16;;;;;;;48.33;21.60;;;;;;;;;;4877669;29;20186;-85
2021/12/29 09:29:42;;;;;;;55.87;25.10;;;;;;;;;;4879774;29;20206;-85
2021/12/29 09:32:08;;;;;;;73.47;27.77;;;;;;;;;;4870134;29;20226;-86
2021/12/29 09:34:34;;;;;;;53.97;22.73;;;;;;;;;;4864027;29;20190;-84
2021/12/29 09:37:01;;;;;;;78.43;32.00;;;-3.20;99.90;;;;;;4862787;29;20237;-83
2021/12/29 09:39:27;;;;;;;82.73;32.37;;;;;;;;;;4874576;29;20280;-88
2021/12/29 09:41:53;;;;;;;65.33;26.77;;;;;;;;;;4869322;29;20190;-86
2021/12/29 09:44:20;;;;;;;75.47;30.20;;;;;;;;;;4847205;29;20596;-83
2021/12/29 09:46:50;;;;;;;51.50;22.43;;;;;;;;;;4870126;29;20266;-85
2021/12/29 09:49:16;;;;;;;57.70;24.07;;;-3.10;99.90;;;;;;4871305;29;20281;-85
2021/12/29 09:51:42;;;;;;;71.47;27.63;;;;;;;;;;4878198;29;20220;-85
2021/12/29 09:54:09;;;;;;;58.57;25.17;;;;;;;;;;4879746;29;20236;-89
2021/12/29 09:56:35;;;;;;;47.50;21.57;;;;;;;;;;4872266;29;20200;-87
2021/12/29 09:59:03;;;;;;;68.87;29.00;;;;;;;;;;4871822;29;20196;-87
2021/12/29 10:01:29;;;;;;;52.93;22.87;;;;;;;;;;4870939;29;20246;-87
2021/12/29 10:03:55;;;;;;;44.10;19.90;;;;;;;;;;4878874;29;20218;-86
2021/12/29 10:06:21;;;;;;;49.43;20.87;;;;;;;;;;4872961;29;20187;-88
2021/12/29 10:08:48;;;;;;;63.70;26.07;;;-3.00;99.90;;;;;;4862189;29;20194;-87
2021/12/29 10:11:32;;;;;;;81.07;31.23;;;-3.00;99.90;;;;;;4871305;29;20225;-87
2021/12/29 10:13:58;;;;;;;63.17;25.40;;;;;;;;;;4874531;29;20197;-88
2021/12/29 10:16:28;;;;;;;53.07;23.73;;;-2.90;99.90;;;;;;4876061;29;20205;-87
2021/12/29 10:19:15;;;;;;;62.67;25.60;;;-2.60;99.90;;;;;;4878901;29;20234;-91
2021/12/29 10:21:43;;;;;;;59.40;24.83;;;-2.80;99.90;;;;;;4876154;29;20195;-88
2021/12/29 10:24:09;;;;;;;59.93;23.37;;;;;;;;;;4878398;29;20249;-91
2021/12/29 10:26:38;;;;;;;75.87;32.13;;;-2.70;99.90;;;;;;4880877;29;20192;-90
2021/12/29 10:29:08;;;;;;;71.17;29.80;;;-2.70;99.90;;;;;;4879719;29;20261;-89
2021/12/29 10:31:47;;;;;;;49.73;21.77;;;-2.70;99.90;;;;;;4879448;29;20212;-92
2021/12/29 10:34:17;;;;;;;36.60;16.60;;;-2.70;99.90;;;;;;4875982;29;20180;-90
2021/12/29 10:37:08;;;;;;;42.93;18.33;;;-2.50;99.90;;;;;;4879492;29;20173;-89
2021/12/29 10:39:44;;;;;;;55.97;21.40;;;-2.70;99.90;;;;;;4879764;29;20255;-85
2021/12/29 10:42:22;;;;;;;52.27;21.07;;;-2.60;99.90;;;;;;4885197;29;20199;-84
2021/12/29 10:44:58;;;;;;;61.93;26.80;;;-2.50;99.90;;;;;;4883312;29;20173;-87
2021/12/29 10:47:34;;;;;;;51.60;22.17;;;-2.30;99.90;;;;;;4876437;29;20227;-89
2021/12/29 10:50:03;;;;;;;43.27;20.33;;;-2.60;99.90;;;;;;4905870;29;20177;-89
2021/12/29 10:52:29;;;;;;;52.37;23.37;;;;;;;;;;4895488;29;20180;-88
2021/12/29 10:54:54;;;;;;;71.13;25.20;;;-2.30;99.90;;;;;;4903162;29;20208;-87
2021/12/29 10:57:20;;;;;;;94.20;31.00;;;;;;;;;;4893680;29;20181;-87
2021/12/29 10:59:55;;;;;;;59.40;24.37;;;-2.40;99.90;;;;;;4897734;29;20219;-86
2021/12/29 11:02:30;;;;;;;51.10;21.43;;;-2.40;99.90;;;;;;4898126;29;20197;-89
2021/12/29 11:04:59;;;;;;;54.10;21.37;;;-2.40;99.90;;;;;;4896854;29;20193;-87
2021/12/29 11:07:29;;;;;;;53.07;21.70;;;-2.40;99.90;;;;;;4894940;29;20175;-87
2021/12/29 11:09:56;;;;;;;49.63;21.17;;;;;;;;;;4894634;29;20222;-88
2021/12/29 11:12:24;;;;;;;56.33;24.27;;;;;;;;;;4874676;29;20175;-88
2021/12/29 11:14:53;;;;;;;45.80;21.73;;;;;;;;;;4887264;29;20202;-88
2021/12/29 11:17:25;;;;;;;57.67;24.73;;;-2.50;99.90;;;;;;4901107;29;20221;-90
2021/12/29 11:19:56;;;;;;;61.83;24.87;;;-2.40;99.90;;;;;;4892716;29;20191;-90
2021/12/29 11:22:25;;;;;;;38.30;17.77;;;-2.50;99.90;;;;;;4885670;29;20175;-89
2021/12/29 11:25:00;;;;;;;60.47;24.50;;;-2.40;99.90;;;;;;4880737;29;20205;-88
2021/12/29 11:27:27;;;;;;;48.97;20.70;;;-2.50;99.90;;;;;;4867716;29;20193;-87
2021/12/29 11:29:53;;;;;;;56.53;22.60;;;;;;;;;;4871279;29;20192;-88
2021/12/29 11:32:22;;;;;;;42.40;21.23;;;-2.50;99.90;;;;;;4873562;29;20544;-88
2021/12/29 11:35:23;;;;;;;47.93;22.00;;;-2.40;99.90;;;;;;4873199;29;20263;-86
2021/12/29 11:37:55;;;;;;;54.97;26.20;;;-2.40;99.90;;;;;;4860530;29;20524;-89
2021/12/29 11:40:28;;;;;;;52.40;23.40;;;-2.20;99.90;;;;;;4878950;29;20190;-87
2021/12/29 11:42:54;;;;;;;53.13;22.67;;;-2.40;99.90;;;;;;4880055;29;20198;-87
2021/12/29 11:45:20;;;;;;;57.87;25.40;;;;;;;;;;4880165;29;20221;-89
2021/12/29 11:47:47;;;;;;;56.83;28.77;;;;;;;;;;4873057;29;20283;-87
2021/12/29 11:50:24;;;;;;;49.17;22.00;;;-2.40;99.90;;;;;;4879764;29;20210;-91
2021/12/29 11:53:16;;;;;;;45.57;21.63;;;-2.30;99.90;;;;;;4876684;29;20197;-90
2021/12/29 11:56:14;;;;;;;49.23;21.03;;;-1.80;99.90;;;;;;4879904;29;20186;-89
2021/12/29 11:58:43;;;;;;;46.17;20.50;;;;;;;;;;4878967;29;20265;-88
2021/12/29 12:01:24;;;;;;;44.27;20.90;;;-2.40;99.90;;;;;;4878754;29;20732;-88
2021/12/29 12:03:55;;;;;;;56.63;22.60;;;-2.30;99.90;;;;;;4886348;29;20276;-89
2021/12/29 12:06:29;;;;;;;49.50;24.83;;;-2.30;99.90;;;;;;4877456;29;20641;-89
2021/12/29 12:09:04;;;;;;;65.43;28.57;;;-2.50;99.90;;;;;;4862204;29;20235;-89
2021/12/29 12:11:30;;;;;;;56.30;26.37;;;-2.20;99.90;;;;;;4869422;29;20234;-86
2021/12/29 12:13:57;;;;;;;84.73;36.67;;;;;;;;;;4877882;29;20248;-87
2021/12/29 12:16:26;;;;;;;67.03;25.53;;;;;;;;;;4852685;29;20252;-87
2021/12/29 12:18:54;;;;;;;64.97;27.63;;;-2.20;99.90;;;;;;4890514;29;20281;-87
2021/12/29 12:21:31;;;;;;;59.90;24.90;;;-2.20;99.90;;;;;;4880299;29;20211;-88
2021/12/29 12:24:23;;;;;;;51.20;22.67;;;-2.10;99.90;;;;;;4878546;29;20201;-89
2021/12/29 12:26:56;;;;;;;61.67;25.03;;;-2.20;99.90;;;;;;4877813;29;20600;-89
2021/12/29 12:29:28;;;;;;;61.17;25.53;;;-2.20;99.90;;;;;;4879056;29;20192;-91
2021/12/29 12:32:05;;;;;;;132.27;51.67;;;-2.10;99.90;;;;;;4869352;29;20225;-87
2021/12/29 12:34:31;;;;;;;211.23;78.50;;;;;;;;;;4867416;29;20198;-89
2021/12/29 12:36:57;;;;;;;94.47;43.53;;;;;;;;;;4880006;29;20309;-89
2021/12/29 12:39:23;;;;;;;73.43;33.07;;;;;;;;;;4874607;29;20191;-90
2021/12/29 12:41:53;;;;;;;77.47;32.00;;;-2.10;99.90;;;;;;4872070;29;20656;-89
2021/12/29 12:44:40;;;;;;;75.43;33.70;;;-2.10;99.90;;;;;;4875654;29;20189;-88
2021/12/29 12:47:12;;;;;;;66.40;28.43;;;-2.00;99.90;;;;;;4870326;29;20335;-87
2021/12/29 12:49:42;;;;;;;64.13;28.83;;;-1.80;99.90;;;;;;4872760;29;20193;-87
2021/12/29 12:52:10;;;;;;;66.37;28.27;;;-2.10;99.90;;;;;;4876048;29;20217;-88
2021/12/29 12:54:47;;;;;;;73.20;31.03;;;-2.10;99.90;;;;;;4871810;29;20201;-88
2021/12/29 12:57:25;;;;;;;68.33;29.13;;;-2.10;99.90;;;;;;4873642;29;20197;-87
2021/12/29 12:59:54;;;;;;;71.67;28.07;;;-2.20;99.90;;;;;;4873416;29;20233;-87
2021/12/29 13:02:22;;;;;;;60.77;26.50;;;-2.20;99.90;;;;;;4874101;29;20191;-86
2021/12/29 13:05:13;;;;;;;65.43;28.00;;;-2.20;99.90;;;;;;4868189;29;20228;-89
2021/12/29 13:07:42;;;;;;;86.90;34.13;;;-2.20;99.90;;;;;;4876541;29;20208;-88
2021/12/29 13:10:11;;;;;;;64.47;26.37;;;-2.20;99.90;;;;;;4875853;29;20196;-87
2021/12/29 13:12:40;;;;;;;85.10;36.53;;;-2.20;99.90;;;;;;4877696;29;20197;-86
2021/12/29 13:15:13;;;;;;;102.33;40.33;;;-2.20;99.90;;;;;;4867932;29;20204;-87
2021/12/29 13:17:44;;;;;;;60.23;28.80;;;-2.20;99.90;;;;;;4875756;29;20650;-87
2021/12/29 13:20:10;;;;;;;86.00;38.13;;;;;;;;;;4879601;29;20280;-87
2021/12/29 13:22:36;;;;;;;67.50;30.13;;;;;;;;;;4878456;29;20205;-87
2021/12/29 13:25:05;;;;;;;84.93;41.20;;;-2.00;99.90;;;;;;4876221;29;20199;-87
2021/12/29 13:27:31;;;;;;;62.87;28.93;;;;;;;;;;4874332;29;20219;-87
2021/12/29 13:29:58;;;;;;;67.10;29.73;;;-2.10;99.90;;;;;;4878218;29;20659;-87
2021/12/29 13:32:25;;;;;;;78.90;35.70;;;;;;;;;;4869286;29;20279;-87
2021/12/29 13:35:06;;;;;;;70.27;31.17;;;-2.00;99.90;;;;;;4880140;29;20203;-84
2021/12/29 13:37:32;;;;;;;80.63;36.37;;;;;;;;;;4877223;29;20265;-88
2021/12/29 13:39:58;;;;;;;68.60;28.97;;;-2.00;99.90;;;;;;4869543;29;20202;-84
2021/12/29 13:42:26;;;;;;;65.67;29.87;;;-2.00;99.90;;;;;;4848050;29;20213;-86